sensor_id;sensor_type;location;lat;lon;timestamp;P1;durP1;ratioP1;P2;durP2;ratioP2
609;SDS011;292;48.800;9.216;2024-02-28T00:00:51;27.83;;;14.00;;
609;SDS011;292;48.800;9.216;2024-02-28T00:03:18;34.33;;;16.17;;
609;SDS011;292;48.800;9.216;2024-02-28T00:05:47;30.60;;;15.60;;
609;SDS011;292;48.800;9.216;2024-02-28T00:08:14;32.00;;;15.30;;
609;SDS011;292;48.800;9.216;2024-02-28T00:10:42;27.43;;;12.77;;
609;SDS011;292;48.800;9.216;2024-02-28T00:13:10;28.90;;;13.90;;
609;SDS011;292;48.800;9.216;2024-02-28T00:15:37;27.60;;;13.70;;
609;SDS011;292;48.800;9.216;2024-02-28T00:18:04;32.03;;;14.97;;
609;SDS011;292;48.800;9.216;2024-02-28T00:20:31;29.40;;;14.00;;
609;SDS011;292;48.800;9.216;2024-02-28T00:22:58;25.77;;;13.23;;
609;SDS011;292;48.800;9.216;2024-02-28T00:25:25;30.27;;;13.50;;
609;SDS011;292;48.800;9.216;2024-02-28T00:27:52;27.00;;;13.63;;
609;SDS011;292;48.800;9.216;2024-02-28T00:30:21;25.53;;;12.63;;
609;SDS011;292;48.800;9.216;2024-02-28T00:32:48;25.07;;;13.67;;
609;SDS011;292;48.800;9.216;2024-02-28T00:35:15;27.20;;;14.00;;
609;SDS011;292;48.800;9.216;2024-02-28T00:37:44;31.03;;;14.10;;
609;SDS011;292;48.800;9.216;2024-02-28T00:40:12;25.30;;;13.80;;
609;SDS011;292;48.800;9.216;2024-02-28T00:42:39;28.20;;;14.10;;
609;SDS011;292;48.800;9.216;2024-02-28T00:45:07;27.30;;;13.47;;
609;SDS011;292;48.800;9.216;2024-02-28T00:47:37;26.30;;;13.33;;
609;SDS011;292;48.800;9.216;2024-02-28T00:50:05;28.87;;;14.27;;
609;SDS011;292;48.800;9.216;2024-02-28T00:52:32;27.67;;;13.57;;
609;SDS011;292;48.800;9.216;2024-02-28T00:54:59;29.70;;;14.50;;
609;SDS011;292;48.800;9.216;2024-02-28T00:57:26;29.70;;;15.30;;
609;SDS011;292;48.800;9.216;2024-02-28T00:59:53;29.53;;;14.40;;
609;SDS011;292;48.800;9.216;2024-02-28T01:02:22;26.73;;;13.40;;
609;SDS011;292;48.800;9.216;2024-02-28T01:04:50;27.83;;;13.67;;
609;SDS011;292;48.800;9.216;2024-02-28T01:07:17;27.17;;;14.03;;
609;SDS011;292;48.800;9.216;2024-02-28T01:09:44;34.60;;;14.67;;
609;SDS011;292;48.800;9.216;2024-02-28T01:12:11;32.73;;;15.10;;
609;SDS011;292;48.800;9.216;2024-02-28T01:14:38;34.83;;;16.37;;
609;SDS011;292;48.800;9.216;2024-02-28T01:17:05;32.87;;;15.97;;
609;SDS011;292;48.800;9.216;2024-02-28T01:19:32;35.60;;;15.27;;
609;SDS011;292;48.800;9.216;2024-02-28T01:22:01;31.87;;;14.53;;
609;SDS011;292;48.800;9.216;2024-02-28T01:24:28;33.23;;;14.30;;
609;SDS011;292;48.800;9.216;2024-02-28T01:26:55;26.90;;;14.30;;
609;SDS011;292;48.800;9.216;2024-02-28T01:29:22;36.23;;;15.97;;
609;SDS011;292;48.800;9.216;2024-02-28T01:31:49;28.87;;;14.90;;
609;SDS011;292;48.800;9.216;2024-02-28T01:34:16;31.00;;;15.03;;
609;SDS011;292;48.800;9.216;2024-02-28T01:36:43;34.40;;;16.03;;
609;SDS011;292;48.800;9.216;2024-02-28T01:39:12;32.67;;;14.50;;
609;SDS011;292;48.800;9.216;2024-02-28T01:41:39;41.20;;;16.67;;
609;SDS011;292;48.800;9.216;2024-02-28T01:44:08;32.13;;;14.93;;
609;SDS011;292;48.800;9.216;2024-02-28T01:46:35;36.57;;;15.40;;
609;SDS011;292;48.800;9.216;2024-02-28T01:49:05;28.17;;;14.33;;
609;SDS011;292;48.800;9.216;2024-02-28T01:51:32;32.90;;;15.73;;
609;SDS011;292;48.800;9.216;2024-02-28T01:53:59;32.50;;;15.30;;
609;SDS011;292;48.800;9.216;2024-02-28T01:56:27;33.63;;;15.60;;
609;SDS011;292;48.800;9.216;2024-02-28T01:58:55;36.43;;;17.90;;
609;SDS011;292;48.800;9.216;2024-02-28T02:01:23;35.07;;;16.53;;
609;SDS011;292;48.800;9.216;2024-02-28T02:03:50;29.00;;;14.27;;
609;SDS011;292;48.800;9.216;2024-02-28T02:06:18;32.50;;;14.50;;
609;SDS011;292;48.800;9.216;2024-02-28T02:08:46;35.37;;;16.03;;
609;SDS011;292;48.800;9.216;2024-02-28T02:11:13;34.20;;;15.53;;
609;SDS011;292;48.800;9.216;2024-02-28T02:13:50;35.67;;;15.60;;
609;SDS011;292;48.800;9.216;2024-02-28T02:16:18;35.80;;;16.50;;
609;SDS011;292;48.800;9.216;2024-02-28T02:18:47;39.27;;;16.53;;
609;SDS011;292;48.800;9.216;2024-02-28T02:21:15;35.73;;;17.07;;
609;SDS011;292;48.800;9.216;2024-02-28T02:23:46;33.07;;;16.43;;
609;SDS011;292;48.800;9.216;2024-02-28T02:26:13;34.10;;;15.90;;
609;SDS011;292;48.800;9.216;2024-02-28T02:28:40;36.08;;;15.93;;
609;SDS011;292;48.800;9.216;2024-02-28T02:31:07;32.33;;;15.17;;
609;SDS011;292;48.800;9.216;2024-02-28T02:33:34;34.50;;;17.27;;
609;SDS011;292;48.800;9.216;2024-02-28T02:36:01;34.17;;;16.07;;
609;SDS011;292;48.800;9.216;2024-02-28T02:38:29;31.40;;;14.47;;
609;SDS011;292;48.800;9.216;2024-02-28T02:40:57;33.63;;;15.10;;
609;SDS011;292;48.800;9.216;2024-02-28T02:43:24;35.83;;;16.50;;
609;SDS011;292;48.800;9.216;2024-02-28T02:45:51;34.27;;;15.97;;
609;SDS011;292;48.800;9.216;2024-02-28T02:48:18;31.20;;;15.13;;
609;SDS011;292;48.800;9.216;2024-02-28T02:50:45;31.43;;;15.20;;
609;SDS011;292;48.800;9.216;2024-02-28T02:53:13;35.17;;;15.43;;
609;SDS011;292;48.800;9.216;2024-02-28T02:55:40;38.23;;;16.57;;
609;SDS011;292;48.800;9.216;2024-02-28T02:58:08;30.90;;;15.00;;
609;SDS011;292;48.800;9.216;2024-02-28T03:00:35;37.23;;;16.70;;
609;SDS011;292;48.800;9.216;2024-02-28T03:03:06;35.00;;;16.15;;
609;SDS011;292;48.800;9.216;2024-02-28T03:05:33;33.73;;;14.80;;
609;SDS011;292;48.800;9.216;2024-02-28T03:08:00;31.83;;;14.77;;
609;SDS011;292;48.800;9.216;2024-02-28T03:10:32;32.60;;;15.90;;
609;SDS011;292;48.800;9.216;2024-02-28T03:12:59;36.27;;;16.10;;
609;SDS011;292;48.800;9.216;2024-02-28T03:15:29;30.80;;;14.90;;
609;SDS011;292;48.800;9.216;2024-02-28T03:17:56;29.50;;;14.88;;
609;SDS011;292;48.800;9.216;2024-02-28T03:20:23;35.37;;;15.67;;
609;SDS011;292;48.800;9.216;2024-02-28T03:22:50;37.27;;;15.60;;
609;SDS011;292;48.800;9.216;2024-02-28T03:25:17;40.60;;;16.07;;
609;SDS011;292;48.800;9.216;2024-02-28T03:27:44;33.43;;;15.07;;
609;SDS011;292;48.800;9.216;2024-02-28T03:30:11;36.60;;;15.60;;
609;SDS011;292;48.800;9.216;2024-02-28T03:32:40;31.40;;;14.73;;
609;SDS011;292;48.800;9.216;2024-02-28T03:35:10;34.00;;;15.50;;
609;SDS011;292;48.800;9.216;2024-02-28T03:37:37;40.10;;;16.00;;
609;SDS011;292;48.800;9.216;2024-02-28T03:40:04;31.63;;;14.10;;
609;SDS011;292;48.800;9.216;2024-02-28T03:42:33;39.58;;;14.80;;
609;SDS011;292;48.800;9.216;2024-02-28T03:45:00;29.45;;;14.35;;
609;SDS011;292;48.800;9.216;2024-02-28T03:47:27;30.23;;;14.20;;
609;SDS011;292;48.800;9.216;2024-02-28T03:49:56;32.70;;;14.70;;
609;SDS011;292;48.800;9.216;2024-02-28T03:52:24;31.20;;;14.70;;
609;SDS011;292;48.800;9.216;2024-02-28T03:54:51;30.75;;;15.38;;
609;SDS011;292;48.800;9.216;2024-02-28T03:57:18;33.97;;;15.43;;
609;SDS011;292;48.800;9.216;2024-02-28T03:59:45;35.03;;;15.53;;
609;SDS011;292;48.800;9.216;2024-02-28T04:02:12;33.20;;;14.48;;
609;SDS011;292;48.800;9.216;2024-02-28T04:04:39;34.67;;;14.80;;
609;SDS011;292;48.800;9.216;2024-02-28T04:07:07;36.53;;;14.47;;
609;SDS011;292;48.800;9.216;2024-02-28T04:09:34;36.53;;;15.07;;
609;SDS011;292;48.800;9.216;2024-02-28T04:12:05;32.70;;;14.20;;
609;SDS011;292;48.800;9.216;2024-02-28T04:14:33;30.40;;;14.53;;
609;SDS011;292;48.800;9.216;2024-02-28T04:17:03;37.53;;;15.87;;
609;SDS011;292;48.800;9.216;2024-02-28T04:19:32;35.67;;;15.00;;
609;SDS011;292;48.800;9.216;2024-02-28T04:22:01;36.30;;;15.90;;
609;SDS011;292;48.800;9.216;2024-02-28T04:24:29;38.07;;;16.40;;
609;SDS011;292;48.800;9.216;2024-02-28T04:26:59;33.70;;;14.97;;
609;SDS011;292;48.800;9.216;2024-02-28T04:29:31;32.57;;;15.17;;
609;SDS011;292;48.800;9.216;2024-02-28T04:32:00;39.03;;;15.77;;
609;SDS011;292;48.800;9.216;2024-02-28T04:34:27;31.27;;;15.10;;
609;SDS011;292;48.800;9.216;2024-02-28T04:36:54;38.00;;;17.17;;
609;SDS011;292;48.800;9.216;2024-02-28T04:39:21;34.42;;;15.70;;
609;SDS011;292;48.800;9.216;2024-02-28T04:41:49;40.20;;;17.13;;
609;SDS011;292;48.800;9.216;2024-02-28T04:44:16;40.13;;;15.95;;
609;SDS011;292;48.800;9.216;2024-02-28T04:46:43;32.73;;;14.93;;
609;SDS011;292;48.800;9.216;2024-02-28T04:49:10;36.88;;;14.20;;
609;SDS011;292;48.800;9.216;2024-02-28T04:51:37;31.20;;;14.13;;
609;SDS011;292;48.800;9.216;2024-02-28T04:54:04;36.95;;;16.27;;
609;SDS011;292;48.800;9.216;2024-02-28T04:56:31;39.00;;;16.77;;
609;SDS011;292;48.800;9.216;2024-02-28T04:59:00;31.58;;;15.05;;
609;SDS011;292;48.800;9.216;2024-02-28T05:01:27;32.53;;;14.63;;
609;SDS011;292;48.800;9.216;2024-02-28T05:03:54;35.08;;;14.93;;
609;SDS011;292;48.800;9.216;2024-02-28T05:06:21;32.80;;;15.20;;
609;SDS011;292;48.800;9.216;2024-02-28T05:08:48;37.70;;;15.87;;
609;SDS011;292;48.800;9.216;2024-02-28T05:11:14;34.38;;;15.43;;
609;SDS011;292;48.800;9.216;2024-02-28T05:13:41;31.75;;;15.15;;
609;SDS011;292;48.800;9.216;2024-02-28T05:16:13;34.67;;;15.43;;
609;SDS011;292;48.800;9.216;2024-02-28T05:18:40;32.17;;;15.77;;
609;SDS011;292;48.800;9.216;2024-02-28T05:21:08;34.50;;;15.83;;
609;SDS011;292;48.800;9.216;2024-02-28T05:23:35;40.97;;;16.40;;
609;SDS011;292;48.800;9.216;2024-02-28T05:26:02;42.70;;;16.30;;
609;SDS011;292;48.800;9.216;2024-02-28T05:28:31;34.05;;;16.30;;
609;SDS011;292;48.800;9.216;2024-02-28T05:30:59;32.42;;;15.15;;
609;SDS011;292;48.800;9.216;2024-02-28T05:33:29;33.90;;;15.40;;
609;SDS011;292;48.800;9.216;2024-02-28T05:35:56;30.35;;;14.43;;
609;SDS011;292;48.800;9.216;2024-02-28T05:38:24;28.83;;;14.20;;
609;SDS011;292;48.800;9.216;2024-02-28T05:40:51;29.60;;;14.70;;
609;SDS011;292;48.800;9.216;2024-02-28T05:43:18;28.52;;;13.95;;
609;SDS011;292;48.800;9.216;2024-02-28T05:45:45;39.65;;;14.85;;
609;SDS011;292;48.800;9.216;2024-02-28T05:48:12;31.20;;;14.48;;
609;SDS011;292;48.800;9.216;2024-02-28T05:50:41;31.33;;;13.55;;
609;SDS011;292;48.800;9.216;2024-02-28T05:53:08;36.25;;;15.52;;
609;SDS011;292;48.800;9.216;2024-02-28T05:55:35;31.63;;;13.77;;
609;SDS011;292;48.800;9.216;2024-02-28T05:58:02;34.17;;;15.80;;
609;SDS011;292;48.800;9.216;2024-02-28T06:00:30;29.70;;;14.77;;
609;SDS011;292;48.800;9.216;2024-02-28T06:02:57;28.23;;;15.10;;
609;SDS011;292;48.800;9.216;2024-02-28T06:05:27;28.58;;;13.65;;
609;SDS011;292;48.800;9.216;2024-02-28T06:07:55;37.65;;;16.80;;
609;SDS011;292;48.800;9.216;2024-02-28T06:10:39;30.23;;;14.65;;
609;SDS011;292;48.800;9.216;2024-02-28T06:13:19;30.60;;;14.40;;
609;SDS011;292;48.800;9.216;2024-02-28T06:15:48;32.17;;;14.85;;
609;SDS011;292;48.800;9.216;2024-02-28T06:18:17;30.80;;;14.60;;
609;SDS011;292;48.800;9.216;2024-02-28T06:20:44;36.53;;;15.80;;
609;SDS011;292;48.800;9.216;2024-02-28T06:23:13;28.17;;;14.10;;
609;SDS011;292;48.800;9.216;2024-02-28T06:25:42;31.20;;;14.45;;
609;SDS011;292;48.800;9.216;2024-02-28T06:28:09;27.17;;;13.13;;
609;SDS011;292;48.800;9.216;2024-02-28T06:30:36;37.88;;;14.98;;
609;SDS011;292;48.800;9.216;2024-02-28T06:33:05;32.13;;;15.35;;
609;SDS011;292;48.800;9.216;2024-02-28T06:35:34;28.08;;;13.98;;
609;SDS011;292;48.800;9.216;2024-02-28T06:38:10;33.93;;;14.87;;
609;SDS011;292;48.800;9.216;2024-02-28T06:41:14;26.92;;;14.13;;
609;SDS011;292;48.800;9.216;2024-02-28T06:43:49;32.85;;;15.20;;
609;SDS011;292;48.800;9.216;2024-02-28T06:46:17;29.02;;;13.93;;
609;SDS011;292;48.800;9.216;2024-02-28T06:48:44;29.03;;;13.70;;
609;SDS011;292;48.800;9.216;2024-02-28T06:51:12;30.20;;;14.60;;
609;SDS011;292;48.800;9.216;2024-02-28T06:53:42;26.53;;;14.20;;
609;SDS011;292;48.800;9.216;2024-02-28T06:56:26;33.92;;;15.25;;
609;SDS011;292;48.800;9.216;2024-02-28T06:59:05;34.72;;;16.75;;
609;SDS011;292;48.800;9.216;2024-02-28T07:01:43;35.10;;;15.75;;
609;SDS011;292;48.800;9.216;2024-02-28T07:04:10;32.00;;;15.57;;
609;SDS011;292;48.800;9.216;2024-02-28T07:06:37;36.93;;;15.67;;
609;SDS011;292;48.800;9.216;2024-02-28T07:09:08;32.30;;;15.50;;
609;SDS011;292;48.800;9.216;2024-02-28T07:11:37;33.13;;;16.15;;
609;SDS011;292;48.800;9.216;2024-02-28T07:14:04;36.33;;;16.10;;
609;SDS011;292;48.800;9.216;2024-02-28T07:16:31;36.17;;;16.55;;
609;SDS011;292;48.800;9.216;2024-02-28T07:18:59;32.75;;;15.85;;
609;SDS011;292;48.800;9.216;2024-02-28T07:21:27;30.85;;;15.60;;
609;SDS011;292;48.800;9.216;2024-02-28T07:23:55;31.23;;;15.63;;
609;SDS011;292;48.800;9.216;2024-02-28T07:26:22;30.40;;;15.27;;
609;SDS011;292;48.800;9.216;2024-02-28T07:28:51;35.28;;;16.17;;
609;SDS011;292;48.800;9.216;2024-02-28T07:31:18;36.03;;;15.82;;
609;SDS011;292;48.800;9.216;2024-02-28T07:33:45;37.20;;;16.33;;
609;SDS011;292;48.800;9.216;2024-02-28T07:36:12;37.83;;;16.87;;
609;SDS011;292;48.800;9.216;2024-02-28T07:38:41;34.67;;;16.60;;
609;SDS011;292;48.800;9.216;2024-02-28T07:41:08;34.20;;;17.20;;
609;SDS011;292;48.800;9.216;2024-02-28T07:43:35;35.30;;;16.73;;
609;SDS011;292;48.800;9.216;2024-02-28T07:46:08;39.50;;;17.98;;
609;SDS011;292;48.800;9.216;2024-02-28T07:48:36;33.17;;;15.45;;
609;SDS011;292;48.800;9.216;2024-02-28T07:51:04;33.95;;;15.52;;
609;SDS011;292;48.800;9.216;2024-02-28T07:53:39;35.07;;;14.87;;
609;SDS011;292;48.800;9.216;2024-02-28T07:56:06;38.77;;;17.67;;
609;SDS011;292;48.800;9.216;2024-02-28T07:58:43;49.80;;;18.10;;
609;SDS011;292;48.800;9.216;2024-02-28T08:01:11;34.40;;;16.60;;
609;SDS011;292;48.800;9.216;2024-02-28T08:03:38;34.70;;;15.83;;
609;SDS011;292;48.800;9.216;2024-02-28T08:06:10;33.38;;;15.90;;
609;SDS011;292;48.800;9.216;2024-02-28T08:08:45;35.07;;;16.47;;
609;SDS011;292;48.800;9.216;2024-02-28T08:11:12;32.97;;;16.80;;
609;SDS011;292;48.800;9.216;2024-02-28T08:13:39;35.50;;;16.63;;
609;SDS011;292;48.800;9.216;2024-02-28T08:16:12;27.47;;;13.87;;
609;SDS011;292;48.800;9.216;2024-02-28T08:18:39;39.72;;;18.00;;
609;SDS011;292;48.800;9.216;2024-02-28T08:21:06;39.53;;;18.77;;
609;SDS011;292;48.800;9.216;2024-02-28T08:23:34;39.30;;;18.27;;
609;SDS011;292;48.800;9.216;2024-02-28T08:26:01;43.03;;;19.88;;
609;SDS011;292;48.800;9.216;2024-02-28T08:28:29;44.58;;;17.30;;
609;SDS011;292;48.800;9.216;2024-02-28T08:30:56;42.93;;;19.00;;
609;SDS011;292;48.800;9.216;2024-02-28T08:33:34;42.47;;;19.20;;
609;SDS011;292;48.800;9.216;2024-02-28T08:36:02;40.00;;;19.35;;
609;SDS011;292;48.800;9.216;2024-02-28T08:38:30;41.03;;;18.33;;
609;SDS011;292;48.800;9.216;2024-02-28T08:40:57;42.88;;;18.40;;
609;SDS011;292;48.800;9.216;2024-02-28T08:43:24;54.15;;;20.08;;
609;SDS011;292;48.800;9.216;2024-02-28T08:45:54;44.17;;;18.80;;
609;SDS011;292;48.800;9.216;2024-02-28T08:48:21;35.40;;;16.35;;
609;SDS011;292;48.800;9.216;2024-02-28T08:50:50;35.45;;;16.27;;
609;SDS011;292;48.800;9.216;2024-02-28T08:53:17;36.85;;;16.95;;
609;SDS011;292;48.800;9.216;2024-02-28T08:55:44;39.63;;;18.33;;
609;SDS011;292;48.800;9.216;2024-02-28T08:58:11;37.13;;;17.42;;
609;SDS011;292;48.800;9.216;2024-02-28T09:00:38;43.95;;;18.45;;
609;SDS011;292;48.800;9.216;2024-02-28T09:03:05;41.17;;;18.95;;
609;SDS011;292;48.800;9.216;2024-02-28T09:05:46;41.85;;;16.92;;
609;SDS011;292;48.800;9.216;2024-02-28T09:08:23;34.42;;;16.30;;
609;SDS011;292;48.800;9.216;2024-02-28T09:10:50;40.42;;;17.75;;
609;SDS011;292;48.800;9.216;2024-02-28T09:13:18;37.55;;;17.05;;
609;SDS011;292;48.800;9.216;2024-02-28T09:15:45;43.07;;;18.00;;
609;SDS011;292;48.800;9.216;2024-02-28T09:18:12;37.45;;;17.75;;
609;SDS011;292;48.800;9.216;2024-02-28T09:20:39;37.60;;;17.20;;
609;SDS011;292;48.800;9.216;2024-02-28T09:23:06;33.93;;;15.90;;
609;SDS011;292;48.800;9.216;2024-02-28T09:25:37;39.95;;;18.05;;
609;SDS011;292;48.800;9.216;2024-02-28T09:28:07;35.65;;;17.10;;
609;SDS011;292;48.800;9.216;2024-02-28T09:30:37;34.10;;;15.73;;
609;SDS011;292;48.800;9.216;2024-02-28T09:33:04;38.40;;;16.73;;
609;SDS011;292;48.800;9.216;2024-02-28T09:35:32;33.20;;;15.80;;
609;SDS011;292;48.800;9.216;2024-02-28T09:37:59;36.58;;;16.10;;
609;SDS011;292;48.800;9.216;2024-02-28T09:40:26;34.90;;;16.13;;
609;SDS011;292;48.800;9.216;2024-02-28T09:42:57;34.03;;;16.10;;
609;SDS011;292;48.800;9.216;2024-02-28T09:45:28;32.72;;;14.95;;
609;SDS011;292;48.800;9.216;2024-02-28T09:47:57;32.00;;;14.03;;
609;SDS011;292;48.800;9.216;2024-02-28T09:50:26;33.58;;;14.95;;
609;SDS011;292;48.800;9.216;2024-02-28T09:52:54;34.92;;;15.73;;
609;SDS011;292;48.800;9.216;2024-02-28T09:55:21;30.50;;;15.03;;
609;SDS011;292;48.800;9.216;2024-02-28T10:00:34;32.20;;;14.23;;
609;SDS011;292;48.800;9.216;2024-02-28T10:03:03;32.20;;;14.40;;
609;SDS011;292;48.800;9.216;2024-02-28T10:05:32;26.93;;;12.50;;
609;SDS011;292;48.800;9.216;2024-02-28T10:08:00;28.40;;;12.77;;
609;SDS011;292;48.800;9.216;2024-02-28T10:10:28;25.80;;;13.33;;
609;SDS011;292;48.800;9.216;2024-02-28T10:12:55;24.88;;;12.90;;
609;SDS011;292;48.800;9.216;2024-02-28T10:15:25;32.90;;;14.20;;
609;SDS011;292;48.800;9.216;2024-02-28T10:17:53;29.40;;;13.40;;
609;SDS011;292;48.800;9.216;2024-02-28T10:20:20;32.70;;;15.13;;
609;SDS011;292;48.800;9.216;2024-02-28T10:22:47;29.03;;;14.13;;
609;SDS011;292;48.800;9.216;2024-02-28T10:25:15;27.40;;;13.73;;
609;SDS011;292;48.800;9.216;2024-02-28T10:27:43;35.20;;;14.57;;
609;SDS011;292;48.800;9.216;2024-02-28T10:30:11;31.93;;;15.57;;
609;SDS011;292;48.800;9.216;2024-02-28T10:32:49;37.40;;;15.53;;
609;SDS011;292;48.800;9.216;2024-02-28T10:35:18;25.60;;;13.40;;
609;SDS011;292;48.800;9.216;2024-02-28T10:37:51;32.33;;;14.37;;
609;SDS011;292;48.800;9.216;2024-02-28T10:40:21;32.60;;;13.80;;
609;SDS011;292;48.800;9.216;2024-02-28T10:42:49;31.17;;;14.63;;
609;SDS011;292;48.800;9.216;2024-02-28T10:45:16;33.33;;;13.60;;
609;SDS011;292;48.800;9.216;2024-02-28T10:47:52;31.40;;;15.77;;
609;SDS011;292;48.800;9.216;2024-02-28T10:50:19;30.43;;;13.33;;
609;SDS011;292;48.800;9.216;2024-02-28T10:52:46;30.67;;;15.00;;
609;SDS011;292;48.800;9.216;2024-02-28T10:55:17;32.70;;;14.80;;
609;SDS011;292;48.800;9.216;2024-02-28T10:57:57;31.77;;;13.97;;
609;SDS011;292;48.800;9.216;2024-02-28T11:00:33;28.07;;;11.73;;
609;SDS011;292;48.800;9.216;2024-02-28T11:03:03;29.27;;;13.77;;
609;SDS011;292;48.800;9.216;2024-02-28T11:05:37;27.17;;;12.97;;
609;SDS011;292;48.800;9.216;2024-02-28T11:08:05;30.33;;;13.80;;
609;SDS011;292;48.800;9.216;2024-02-28T11:10:35;29.77;;;13.30;;
609;SDS011;292;48.800;9.216;2024-02-28T11:13:06;30.07;;;14.00;;
609;SDS011;292;48.800;9.216;2024-02-28T11:15:37;34.97;;;14.20;;
609;SDS011;292;48.800;9.216;2024-02-28T11:21:01;26.90;;;13.27;;
609;SDS011;292;48.800;9.216;2024-02-28T11:23:35;30.07;;;14.40;;
609;SDS011;292;48.800;9.216;2024-02-28T11:26:03;31.23;;;14.80;;
609;SDS011;292;48.800;9.216;2024-02-28T11:28:30;34.40;;;14.70;;
609;SDS011;292;48.800;9.216;2024-02-28T11:30:57;31.30;;;14.30;;
609;SDS011;292;48.800;9.216;2024-02-28T11:33:24;38.70;;;15.93;;
609;SDS011;292;48.800;9.216;2024-02-28T11:35:56;35.42;;;15.85;;
609;SDS011;292;48.800;9.216;2024-02-28T11:38:28;37.80;;;14.90;;
609;SDS011;292;48.800;9.216;2024-02-28T11:41:10;37.33;;;17.63;;
609;SDS011;292;48.800;9.216;2024-02-28T11:43:37;37.30;;;15.03;;
609;SDS011;292;48.800;9.216;2024-02-28T11:46:07;35.70;;;15.77;;
609;SDS011;292;48.800;9.216;2024-02-28T11:48:38;37.93;;;15.67;;
609;SDS011;292;48.800;9.216;2024-02-28T11:51:13;32.00;;;14.53;;
609;SDS011;292;48.800;9.216;2024-02-28T11:53:42;26.13;;;12.70;;
609;SDS011;292;48.800;9.216;2024-02-28T11:56:09;31.50;;;14.70;;
609;SDS011;292;48.800;9.216;2024-02-28T11:58:50;40.20;;;16.37;;
609;SDS011;292;48.800;9.216;2024-02-28T12:01:17;34.47;;;15.70;;
609;SDS011;292;48.800;9.216;2024-02-28T12:03:44;34.60;;;15.03;;
609;SDS011;292;48.800;9.216;2024-02-28T12:06:13;33.87;;;15.37;;
609;SDS011;292;48.800;9.216;2024-02-28T12:08:40;35.13;;;15.40;;
609;SDS011;292;48.800;9.216;2024-02-28T12:11:07;38.30;;;15.77;;
609;SDS011;292;48.800;9.216;2024-02-28T12:13:36;37.53;;;15.40;;
609;SDS011;292;48.800;9.216;2024-02-28T12:16:03;37.70;;;16.90;;
609;SDS011;292;48.800;9.216;2024-02-28T12:18:31;37.63;;;18.23;;
609;SDS011;292;48.800;9.216;2024-02-28T12:20:58;35.23;;;15.80;;
609;SDS011;292;48.800;9.216;2024-02-28T12:23:28;40.17;;;16.20;;
609;SDS011;292;48.800;9.216;2024-02-28T12:25:55;36.27;;;15.33;;
609;SDS011;292;48.800;9.216;2024-02-28T12:28:22;39.83;;;16.67;;
609;SDS011;292;48.800;9.216;2024-02-28T12:30:49;39.80;;;15.70;;
609;SDS011;292;48.800;9.216;2024-02-28T12:33:24;36.80;;;16.07;;
609;SDS011;292;48.800;9.216;2024-02-28T12:35:53;35.47;;;15.87;;
609;SDS011;292;48.800;9.216;2024-02-28T12:38:27;29.30;;;14.53;;
609;SDS011;292;48.800;9.216;2024-02-28T12:40:54;37.80;;;15.63;;
609;SDS011;292;48.800;9.216;2024-02-28T12:43:23;33.70;;;15.30;;
609;SDS011;292;48.800;9.216;2024-02-28T12:45:50;40.20;;;16.90;;
609;SDS011;292;48.800;9.216;2024-02-28T12:48:17;35.37;;;15.90;;
609;SDS011;292;48.800;9.216;2024-02-28T12:50:44;40.63;;;17.53;;
609;SDS011;292;48.800;9.216;2024-02-28T12:53:11;39.40;;;17.63;;
609;SDS011;292;48.800;9.216;2024-02-28T12:55:40;43.67;;;17.10;;
609;SDS011;292;48.800;9.216;2024-02-28T12:58:12;42.80;;;18.93;;
609;SDS011;292;48.800;9.216;2024-02-28T13:00:39;41.63;;;18.53;;
609;SDS011;292;48.800;9.216;2024-02-28T13:03:17;43.10;;;18.00;;
609;SDS011;292;48.800;9.216;2024-02-28T13:05:44;37.47;;;16.90;;
609;SDS011;292;48.800;9.216;2024-02-28T13:08:11;40.63;;;16.88;;
609;SDS011;292;48.800;9.216;2024-02-28T13:10:38;44.80;;;17.23;;
609;SDS011;292;48.800;9.216;2024-02-28T13:13:08;40.57;;;17.23;;
609;SDS011;292;48.800;9.216;2024-02-28T13:15:37;37.00;;;16.55;;
609;SDS011;292;48.800;9.216;2024-02-28T13:18:05;36.50;;;16.10;;
609;SDS011;292;48.800;9.216;2024-02-28T13:20:34;42.47;;;17.58;;
609;SDS011;292;48.800;9.216;2024-02-28T13:23:11;40.33;;;16.67;;
609;SDS011;292;48.800;9.216;2024-02-28T13:25:38;41.33;;;17.17;;
609;SDS011;292;48.800;9.216;2024-02-28T13:28:10;36.75;;;15.45;;
609;SDS011;292;48.800;9.216;2024-02-28T13:31:08;34.90;;;14.73;;
609;SDS011;292;48.800;9.216;2024-02-28T13:33:37;36.50;;;15.43;;
609;SDS011;292;48.800;9.216;2024-02-28T13:36:17;35.75;;;16.25;;
609;SDS011;292;48.800;9.216;2024-02-28T13:38:44;40.27;;;16.80;;
609;SDS011;292;48.800;9.216;2024-02-28T13:41:23;35.65;;;15.75;;
609;SDS011;292;48.800;9.216;2024-02-28T13:43:51;38.40;;;15.87;;
609;SDS011;292;48.800;9.216;2024-02-28T13:46:18;37.30;;;16.73;;
609;SDS011;292;48.800;9.216;2024-02-28T13:48:51;36.28;;;15.77;;
609;SDS011;292;48.800;9.216;2024-02-28T13:51:18;35.10;;;15.63;;
609;SDS011;292;48.800;9.216;2024-02-28T13:53:45;37.50;;;15.80;;
609;SDS011;292;48.800;9.216;2024-02-28T13:56:12;34.70;;;15.70;;
609;SDS011;292;48.800;9.216;2024-02-28T13:58:56;35.63;;;14.60;;
609;SDS011;292;48.800;9.216;2024-02-28T14:01:25;37.47;;;15.57;;
609;SDS011;292;48.800;9.216;2024-02-28T14:03:59;33.80;;;14.50;;
609;SDS011;292;48.800;9.216;2024-02-28T14:06:26;34.10;;;15.27;;
609;SDS011;292;48.800;9.216;2024-02-28T14:08:53;28.83;;;13.97;;
609;SDS011;292;48.800;9.216;2024-02-28T14:11:22;37.80;;;15.70;;
609;SDS011;292;48.800;9.216;2024-02-28T14:13:49;28.87;;;13.37;;
609;SDS011;292;48.800;9.216;2024-02-28T14:16:19;42.73;;;15.00;;
609;SDS011;292;48.800;9.216;2024-02-28T14:18:46;30.15;;;14.10;;
609;SDS011;292;48.800;9.216;2024-02-28T14:21:14;32.10;;;13.60;;
609;SDS011;292;48.800;9.216;2024-02-28T14:23:46;32.17;;;13.33;;
609;SDS011;292;48.800;9.216;2024-02-28T14:26:16;29.90;;;12.27;;
609;SDS011;292;48.800;9.216;2024-02-28T14:28:43;27.33;;;13.50;;
609;SDS011;292;48.800;9.216;2024-02-28T14:31:10;37.40;;;14.07;;
609;SDS011;292;48.800;9.216;2024-02-28T14:33:39;35.67;;;15.73;;
609;SDS011;292;48.800;9.216;2024-02-28T14:36:09;31.93;;;14.67;;
609;SDS011;292;48.800;9.216;2024-02-28T14:38:36;31.80;;;14.30;;
609;SDS011;292;48.800;9.216;2024-02-28T14:41:05;43.93;;;16.63;;
609;SDS011;292;48.800;9.216;2024-02-28T14:43:35;38.13;;;15.97;;
609;SDS011;292;48.800;9.216;2024-02-28T14:46:02;36.85;;;15.32;;
609;SDS011;292;48.800;9.216;2024-02-28T14:48:30;34.73;;;15.00;;
609;SDS011;292;48.800;9.216;2024-02-28T14:50:58;39.93;;;15.73;;
609;SDS011;292;48.800;9.216;2024-02-28T14:53:27;30.03;;;12.53;;
609;SDS011;292;48.800;9.216;2024-02-28T14:55:54;30.67;;;14.03;;
609;SDS011;292;48.800;9.216;2024-02-28T14:58:21;31.13;;;14.90;;
609;SDS011;292;48.800;9.216;2024-02-28T15:00:48;35.88;;;15.00;;
609;SDS011;292;48.800;9.216;2024-02-28T15:03:15;38.00;;;14.43;;
609;SDS011;292;48.800;9.216;2024-02-28T15:05:42;33.67;;;13.30;;
609;SDS011;292;48.800;9.216;2024-02-28T15:08:15;31.50;;;12.97;;
609;SDS011;292;48.800;9.216;2024-02-28T15:10:57;31.17;;;13.30;;
609;SDS011;292;48.800;9.216;2024-02-28T15:13:24;32.25;;;13.07;;
609;SDS011;292;48.800;9.216;2024-02-28T15:15:56;28.00;;;12.90;;
609;SDS011;292;48.800;9.216;2024-02-28T15:18:23;31.65;;;13.43;;
609;SDS011;292;48.800;9.216;2024-02-28T15:20:50;30.07;;;13.20;;
609;SDS011;292;48.800;9.216;2024-02-28T15:23:23;30.37;;;13.63;;
609;SDS011;292;48.800;9.216;2024-02-28T15:25:51;32.73;;;13.63;;
609;SDS011;292;48.800;9.216;2024-02-28T15:28:19;38.73;;;14.60;;
609;SDS011;292;48.800;9.216;2024-02-28T15:30:46;40.20;;;15.47;;